Time;durP1;ratioP1;P1;durP2;ratioP2;P2;SDS_P1;SDS_P2;PMS_P1;PMS_P2;Temp;Humidity;BMP_temperature;BMP_pressure;BME280_temperature;BME280_humidity;BME280_pressure;Samples;Min_cycle;Max_cycle;Signal;HPM_P1;HPM_P2
2022/07/24 00:01:39;;;;;;;2.38;1.63;;;;;;;;;;5068916;28;20028;-83
2022/07/24 00:04:05;;;;;;;7.30;3.55;;;;;;;;;;5028809;28;20026;-82
2022/07/24 00:06:34;;;;;;;2.22;1.45;;;;;;;;;;5039895;28;20017;-80
2022/07/24 00:09:02;;;;;;;1.17;0.93;;;;;;;;;;5073857;28;20090;-86
2022/07/24 00:11:30;;;;;;;1.65;1.25;;;;;;;;;;5047764;28;20024;-89
2022/07/24 00:13:55;;;;;;;1.65;1.15;;;;;;;;;;5060659;28;20024;-88
2022/07/24 00:16:21;;;;;;;3.15;1.70;;;;;;;;;;5057754;28;20511;-81
2022/07/24 00:18:48;;;;;;;2.10;1.40;;;;;;;;;;5058460;28;21398;-87
2022/07/24 00:21:14;;;;;;;5.15;2.45;;;;;;;;;;5065385;28;20033;-90
2022/07/24 00:23:39;;;;;;;3.65;1.85;;;;;;;;;;5043671;28;20048;-86
2022/07/24 00:26:07;;;;;;;5.28;3.22;;;;;;;;;;5049440;28;20042;-83
2022/07/24 00:28:32;;;;;;;3.40;1.63;;;;;;;;;;5059725;28;20047;-82
2022/07/24 00:30:58;;;;;;;2.35;1.45;;;;;;;;;;5059738;28;20132;-90
2022/07/24 00:33:23;;;;;;;9.48;4.50;;;;;;;;;;5058544;28;20402;-86
2022/07/24 00:35:51;;;;;;;9.02;3.47;;;;;;;;;;5048043;28;20029;-82
2022/07/24 00:38:16;;;;;;;2.05;1.55;;;;;;;;;;5051373;28;20029;-83
2022/07/24 00:40:41;;;;;;;5.80;3.58;;;;;;;;;;5047744;28;20025;-81
2022/07/24 00:43:07;;;;;;;1.42;1.33;;;;;;;;;;5072125;28;20403;-84
2022/07/24 00:45:33;;;;;;;1.02;1.02;;;;;;;;;;5040424;28;20091;-83
2022/07/24 00:47:58;;;;;;;1.98;0.90;;;;;;;;;;5055822;28;20028;-83
2022/07/24 00:50:25;;;;;;;1.55;0.93;;;;;;;;;;5095246;28;20068;-87
2022/07/24 00:52:51;;;;;;;3.08;1.60;;;;;;;;;;5049050;28;20179;-82
2022/07/24 00:55:16;;;;;;;2.17;1.25;;;;;;;;;;5052432;28;20024;-82
2022/07/24 00:57:46;;;;;;;1.92;1.20;;;;;;;;;;5053252;28;20442;-78
2022/07/24 01:00:19;;;;;;;1.92;1.25;;;;;;;;;;5051679;28;20028;-80
2022/07/24 01:02:50;;;;;;;2.20;1.35;;;;;;;;;;5050441;28;20035;-87
2022/07/24 01:05:16;;;;;;;8.50;5.82;;;;;;;;;;5055163;28;20162;-82
2022/07/24 01:07:44;;;;;;;1.60;1.50;;;;;;;;;;5052077;28;20029;-82
2022/07/24 01:10:10;;;;;;;1.65;1.08;;;;;;;;;;5055250;28;20060;-83
2022/07/24 01:12:37;;;;;;;45.15;22.58;;;;;;;;;;5055798;28;20032;-82
2022/07/24 01:15:05;;;;;;;7.95;6.60;;;;;;;;;;5053905;28;20061;-82
2022/07/24 01:17:31;;;;;;;2.40;2.17;;;;;;;;;;5054566;28;20470;-82
2022/07/24 01:20:01;;;;;;;1.67;1.50;;;;;;;;;;5056955;28;20033;-85
2022/07/24 01:22:29;;;;;;;6.55;4.15;;;;;;;;;;5058530;28;20323;-85
2022/07/24 01:24:55;;;;;;;3.63;2.00;;;;;;;;;;5059043;28;20029;-91
2022/07/24 01:27:24;;;;;;;2.53;1.25;;;;;;;;;;5059018;28;20597;-82
2022/07/24 01:29:52;;;;;;;1.63;1.48;;;;;;;;;;5056742;28;20024;-81
2022/07/24 01:32:17;;;;;;;1.30;1.20;;;;;;;;;;5057477;28;20442;-81
2022/07/24 01:34:43;;;;;;;1.98;1.00;;;;;;;;;;5037883;28;20083;-86
2022/07/24 01:37:08;;;;;;;1.13;0.98;;;;;;;;;;5054180;28;20143;-87
2022/07/24 01:39:34;;;;;;;5.43;1.83;;;;;;;;;;5057242;28;20029;-83
2022/07/24 01:41:59;;;;;;;1.17;0.88;;;;;;;;;;5060091;28;20090;-88
2022/07/24 01:44:25;;;;;;;1.30;1.08;;;;;;;;;;5033908;28;20470;-87
2022/07/24 01:46:52;;;;;;;2.00;1.23;;;;;;;;;;5008557;28;20029;-89
2022/07/24 01:49:18;;;;;;;1.55;0.90;;;;;;;;;;5042436;28;20142;-89
2022/07/24 01:51:46;;;;;;;1.15;0.90;;;;;;;;;;5041073;28;20442;-88
2022/07/24 01:54:11;;;;;;;1.67;1.02;;;;;;;;;;5059943;28;20051;-86
2022/07/24 01:56:36;;;;;;;1.50;1.10;;;;;;;;;;5039049;28;20124;-86
2022/07/24 01:59:05;;;;;;;1.20;0.88;;;;;;;;;;5054096;28;20360;-83
2022/07/24 02:01:30;;;;;;;0.95;0.77;;;;;;;;;;5056758;28;20064;-87
2022/07/24 02:03:56;;;;;;;2.00;1.42;;;;;;;;;;5074237;28;20424;-84
2022/07/24 02:06:21;;;;;;;2.42;1.58;;;;;;;;;;5040521;28;20036;-87
2022/07/24 02:08:49;;;;;;;2.28;2.08;;;;;;;;;;5041441;28;20024;-86
2022/07/24 02:11:14;;;;;;;19.42;15.15;;;;;;;;;;5059210;28;20123;-85
2022/07/24 02:13:40;;;;;;;5.13;4.00;;;;;;;;;;5077540;28;20406;-89
2022/07/24 02:16:06;;;;;;;5.47;1.58;;;;;;;;;;5073094;28;20032;-86
2022/07/24 02:18:36;;;;;;;1.23;0.88;;;;;;;;;;5071664;28;20049;-89
2022/07/24 02:21:01;;;;;;;1.85;1.08;;;;;;;;;;5057148;28;20485;-85
2022/07/24 02:23:27;;;;;;;0.98;0.80;;;;;;;;;;5040472;28;20051;-86
2022/07/24 02:25:54;;;;;;;10.85;3.03;;;;;;;;;;5058444;28;20021;-84
2022/07/24 02:28:20;;;;;;;5.53;2.58;;;;;;;;;;5051767;28;20025;-85
2022/07/24 02:30:45;;;;;;;1.27;0.80;;;;;;;;;;5053667;28;20025;-84
2022/07/24 02:33:11;;;;;;;2.55;1.48;;;;;;;;;;5055602;28;20088;-83
2022/07/24 02:35:37;;;;;;;0.63;0.52;;;;;;;;;;5058308;28;20342;-85
2022/07/24 02:38:05;;;;;;;1.13;0.88;;;;;;;;;;5038317;28;20052;-85
2022/07/24 02:40:33;;;;;;;0.80;0.80;;;;;;;;;;5055605;28;20035;-89
2022/07/24 02:42:59;;;;;;;2.72;1.38;;;;;;;;;;5037998;28;20180;-82
2022/07/24 02:45:30;;;;;;;0.98;0.82;;;;;;;;;;5049120;28;20128;-84
2022/07/24 02:47:56;;;;;;;1.40;0.80;;;;;;;;;;5055092;28;20025;-84
2022/07/24 02:50:24;;;;;;;1.50;1.38;;;;;;;;;;5037451;28;20028;-82
2022/07/24 02:52:50;;;;;;;2.90;1.73;;;;;;;;;;5055548;28;20025;-80
2022/07/24 02:55:17;;;;;;;1.13;1.02;;;;;;;;;;5057933;28;20039;-83
2022/07/24 02:57:43;;;;;;;1.35;1.25;;;;;;;;;;5063097;28;20056;-84
2022/07/24 03:00:12;;;;;;;0.90;0.88;;;;;;;;;;5053184;28;20113;-81
2022/07/24 03:02:37;;;;;;;1.85;1.50;;;;;;;;;;5050128;28;20122;-81
2022/07/24 03:05:05;;;;;;;2.15;1.30;;;;;;;;;;5049580;28;20564;-79
2022/07/24 03:07:30;;;;;;;1.15;0.77;;;;;;;;;;5051617;28;20042;-81
2022/07/24 03:09:56;;;;;;;2.35;1.52;;;;;;;;;;5048544;28;20090;-79
2022/07/24 03:12:21;;;;;;;1.40;1.00;;;;;;;;;;5045755;28;20126;-80
2022/07/24 03:14:47;;;;;;;1.85;1.42;;;;;;;;;;5055429;28;20043;-80
2022/07/24 03:17:12;;;;;;;1.60;1.38;;;;;;;;;;5055853;28;20047;-80
2022/07/24 03:19:37;;;;;;;4.95;1.45;;;;;;;;;;5052595;28;20028;-80
2022/07/24 03:22:05;;;;;;;1.35;1.08;;;;;;;;;;5051882;28;20096;-79
2022/07/24 03:24:33;;;;;;;1.67;1.10;;;;;;;;;;5053454;28;20536;-80
2022/07/24 03:26:59;;;;;;;1.25;0.90;;;;;;;;;;5048702;28;20064;-80
2022/07/24 03:29:24;;;;;;;1.77;1.10;;;;;;;;;;5058079;28;20271;-80
2022/07/24 03:31:49;;;;;;;0.75;0.75;;;;;;;;;;5057500;28;20021;-81
2022/07/24 03:34:15;;;;;;;2.65;1.08;;;;;;;;;;5057168;28;20060;-79
2022/07/24 03:36:40;;;;;;;2.05;1.33;;;;;;;;;;5056652;28;20037;-80
2022/07/24 03:39:06;;;;;;;2.00;1.25;;;;;;;;;;5055172;28;20029;-79
2022/07/24 03:41:36;;;;;;;1.92;1.10;;;;;;;;;;5054740;28;20028;-80
2022/07/24 03:44:04;;;;;;;1.65;1.00;;;;;;;;;;5055953;28;20021;-80
2022/07/24 03:46:29;;;;;;;1.02;0.85;;;;;;;;;;5055444;28;20024;-80
2022/07/24 03:48:55;;;;;;;1.42;1.00;;;;;;;;;;5055589;28;20024;-77
2022/07/24 03:51:21;;;;;;;1.50;1.35;;;;;;;;;;5038095;28;20032;-80
2022/07/24 03:53:47;;;;;;;1.55;1.25;;;;;;;;;;5038047;28;20446;-77
2022/07/24 03:56:13;;;;;;;3.38;0.90;;;;;;;;;;5070166;28;20453;-80
2022/07/24 03:58:43;;;;;;;1.17;1.10;;;;;;;;;;5038045;28;20037;-79
2022/07/24 04:01:08;;;;;;;1.58;1.02;;;;;;;;;;5051526;28;20122;-79
2022/07/24 04:03:34;;;;;;;1.73;1.10;;;;;;;;;;5055513;28;20354;-79
2022/07/24 04:06:03;;;;;;;1.63;1.30;;;;;;;;;;5053150;28;20108;-80
2022/07/24 04:08:31;;;;;;;1.00;1.00;;;;;;;;;;5054233;28;20025;-78
2022/07/24 04:10:59;;;;;;;1.75;1.20;;;;;;;;;;5055156;28;20040;-79
2022/07/24 04:13:32;;;;;;;2.58;1.10;;;;;;;;;;5055483;28;20108;-80
2022/07/24 04:15:58;;;;;;;1.67;1.25;;;;;;;;;;5052954;28;20033;-80
2022/07/24 04:18:23;;;;;;;1.52;1.17;;;;;;;;;;5055011;28;20035;-79
2022/07/24 04:20:49;;;;;;;1.58;0.95;;;;;;;;;;5054193;28;20017;-80
2022/07/24 04:23:15;;;;;;;1.10;1.00;;;;;;;;;;5055250;28;20059;-78
2022/07/24 04:25:40;;;;;;;3.50;1.17;;;;;;;;;;5053113;28;20457;-80
2022/07/24 04:28:05;;;;;;;1.10;0.98;;;;;;;;;;5055008;28;20071;-79
2022/07/24 04:30:31;;;;;;;1.60;1.35;;;;;;;;;;5053133;28;20044;-79
2022/07/24 04:32:59;;;;;;;2.85;1.38;;;;;;;;;;5055208;28;20033;-79
2022/07/24 04:35:24;;;;;;;3.17;0.90;;;;;;;;;;5052776;28;20040;-79
2022/07/24 04:37:50;;;;;;;1.15;0.95;;;;;;;;;;5015550;28;1111341;-80
2022/07/24 04:40:15;;;;;;;0.93;0.65;;;;;;;;;;5056073;28;20025;-79
2022/07/24 04:42:41;;;;;;;2.05;1.17;;;;;;;;;;5055537;28;20044;-78
2022/07/24 04:45:11;;;;;;;1.60;1.30;;;;;;;;;;5055978;28;20111;-79
2022/07/24 04:47:37;;;;;;;1.23;0.90;;;;;;;;;;5050425;28;20037;-78
2022/07/24 04:50:04;;;;;;;1.70;1.50;;;;;;;;;;5038307;28;20029;-76
2022/07/24 04:52:29;;;;;;;1.33;1.23;;;;;;;;;;5053650;28;20338;-75
2022/07/24 04:54:55;;;;;;;1.40;0.95;;;;;;;;;;5055733;28;20036;-79
2022/07/24 04:57:22;;;;;;;1.30;1.00;;;;;;;;;;5055942;28;20028;-79
2022/07/24 04:59:47;;;;;;;1.23;1.10;;;;;;;;;;5055585;28;20028;-78
2022/07/24 05:02:15;;;;;;;1.23;0.88;;;;;;;;;;5051473;28;20063;-79
2022/07/24 05:04:40;;;;;;;1.60;1.40;;;;;;;;;;5052976;28;20434;-79
2022/07/24 05:07:08;;;;;;;1.05;0.93;;;;;;;;;;5050132;28;20037;-79
2022/07/24 05:09:33;;;;;;;1.30;0.82;;;;;;;;;;5054996;28;20096;-78
2022/07/24 05:12:01;;;;;;;1.65;0.88;;;;;;;;;;5054601;28;20140;-80
2022/07/24 05:14:29;;;;;;;1.85;1.10;;;;;;;;;;5057764;28;20029;-79
2022/07/24 05:16:55;;;;;;;1.98;1.38;;;;;;;;;;5053647;28;20021;-80
2022/07/24 05:19:20;;;;;;;1.73;1.25;;;;;;;;;;5034424;28;20501;-80
2022/07/24 05:21:45;;;;;;;2.08;0.93;;;;;;;;;;5052758;28;20039;-79
2022/07/24 05:24:11;;;;;;;1.27;0.88;;;;;;;;;;5056125;28;20064;-79
2022/07/24 05:26:36;;;;;;;1.17;0.90;;;;;;;;;;5036857;28;20021;-80
2022/07/24 05:29:05;;;;;;;1.33;1.02;;;;;;;;;;5052576;28;20055;-79
2022/07/24 05:31:33;;;;;;;0.68;0.63;;;;;;;;;;5053791;28;20043;-77
2022/07/24 05:34:04;;;;;;;1.55;1.00;;;;;;;;;;5055156;28;20029;-78
2022/07/24 05:36:29;;;;;;;1.77;1.08;;;;;;;;;;5054807;28;20112;-80
2022/07/24 05:38:55;;;;;;;2.08;1.48;;;;;;;;;;5055330;28;20412;-79
2022/07/24 05:41:20;;;;;;;1.75;1.33;;;;;;;;;;5049470;28;20078;-80
2022/07/24 05:43:47;;;;;;;1.75;1.05;;;;;;;;;;5060187;28;20043;-81
2022/07/24 05:46:14;;;;;;;1.10;0.90;;;;;;;;;;5060060;28;20020;-80
2022/07/24 05:48:39;;;;;;;2.20;1.00;;;;;;;;;;5054540;28;20017;-80
2022/07/24 05:51:07;;;;;;;2.03;1.55;;;;;;;;;;5054489;28;20488;-82
2022/07/24 05:53:32;;;;;;;2.28;1.17;;;;;;;;;;5053931;28;20111;-79
2022/07/24 05:55:58;;;;;;;1.10;1.00;;;;;;;;;;5052729;28;20178;-81
2022/07/24 05:58:23;;;;;;;1.35;1.10;;;;;;;;;;5051155;28;20043;-79
2022/07/24 06:00:49;;;;;;;1.10;1.00;;;;;;;;;;5048962;28;20461;-79
2022/07/24 06:03:14;;;;;;;1.33;1.20;;;;;;;;;;5067283;28;20124;-78
2022/07/24 06:05:42;;;;;;;1.38;1.27;;;;;;;;;;5053128;28;20036;-79
2022/07/24 06:08:10;;;;;;;0.95;0.90;;;;;;;;;;5052450;28;20035;-80
2022/07/24 06:10:35;;;;;;;0.90;0.90;;;;;;;;;;5036685;28;20365;-81
2022/07/24 06:13:00;;;;;;;1.38;1.27;;;;;;;;;;5052758;28;20021;-79
2022/07/24 06:15:26;;;;;;;0.77;0.70;;;;;;;;;;5055601;28;20441;-79
2022/07/24 06:17:51;;;;;;;1.10;0.55;;;;;;;;;;5054239;28;20105;-80
2022/07/24 06:20:17;;;;;;;0.93;0.60;;;;;;;;;;5053801;28;20504;-80
2022/07/24 06:22:46;;;;;;;1.13;0.90;;;;;;;;;;5053252;28;20418;-79
2022/07/24 06:25:12;;;;;;;1.08;0.65;;;;;;;;;;5058281;28;20094;-79
2022/07/24 06:27:44;;;;;;;0.88;0.88;;;;;;;;;;5055392;28;20021;-81
2022/07/24 06:30:16;;;;;;;1.73;0.88;;;;;;;;;;5053911;28;20020;-78
2022/07/24 06:32:41;;;;;;;1.38;1.10;;;;;;;;;;5053460;28;20032;-79
2022/07/24 06:35:07;;;;;;;1.25;1.10;;;;;;;;;;5035656;28;20561;-81
2022/07/24 06:37:32;;;;;;;1.70;1.17;;;;;;;;;;5053024;28;20025;-81
2022/07/24 06:39:58;;;;;;;2.80;0.77;;;;;;;;;;5053631;28;20446;-80
2022/07/24 06:42:23;;;;;;;2.75;1.20;;;;;;;;;;5053438;28;20144;-79
2022/07/24 06:44:49;;;;;;;1.15;0.68;;;;;;;;;;5050293;28;20039;-78
2022/07/24 06:47:19;;;;;;;1.17;0.85;;;;;;;;;;5051950;28;20025;-78
2022/07/24 06:49:44;;;;;;;3.45;1.40;;;;;;;;;;5053805;28;20485;-79
2022/07/24 06:52:12;;;;;;;1.13;1.02;;;;;;;;;;5054030;28;20064;-78
2022/07/24 06:54:37;;;;;;;0.75;0.75;;;;;;;;;;5053801;28;20032;-77
2022/07/24 06:57:02;;;;;;;1.00;0.88;;;;;;;;;;5044908;28;20519;-79
2022/07/24 06:59:30;;;;;;;3.42;1.20;;;;;;;;;;5053142;28;20028;-79
2022/07/24 07:01:57;;;;;;;1.38;1.13;;;;;;;;;;5051239;28;20032;-78
2022/07/24 07:04:25;;;;;;;1.77;1.60;;;;;;;;;;5053107;28;20028;-79
2022/07/24 07:06:51;;;;;;;2.78;1.77;;;;;;;;;;5050677;28;20029;-79
2022/07/24 07:09:18;;;;;;;3.92;0.75;;;;;;;;;;5052522;28;20039;-79
2022/07/24 07:11:44;;;;;;;1.23;0.98;;;;;;;;;;5053620;28;20326;-78
2022/07/24 07:14:09;;;;;;;1.27;1.17;;;;;;;;;;5053611;28;20029;-79
2022/07/24 07:16:34;;;;;;;0.45;0.45;;;;;;;;;;5052101;28;20036;-79
2022/07/24 07:19:00;;;;;;;0.93;0.85;;;;;;;;;;5051725;28;20021;-78
2022/07/24 07:21:25;;;;;;;1.05;0.82;;;;;;;;;;5049894;28;20029;-79
2022/07/24 07:23:52;;;;;;;0.80;0.68;;;;;;;;;;5051556;28;20052;-80
2022/07/24 07:26:20;;;;;;;2.65;1.23;;;;;;;;;;5052598;28;20434;-79
2022/07/24 07:28:46;;;;;;;0.50;0.50;;;;;;;;;;5048951;28;20026;-80
2022/07/24 07:31:11;;;;;;;2.92;1.20;;;;;;;;;;5050686;28;20453;-79
2022/07/24 07:33:37;;;;;;;1.17;1.00;;;;;;;;;;5034976;28;20060;-79
2022/07/24 07:36:05;;;;;;;0.43;0.43;;;;;;;;;;5053580;28;20059;-77
2022/07/24 07:38:35;;;;;;;0.65;0.65;;;;;;;;;;5052914;28;20037;-79
2022/07/24 07:41:02;;;;;;;0.93;0.93;;;;;;;;;;5051538;28;20117;-82
2022/07/24 07:43:28;;;;;;;0.95;0.75;;;;;;;;;;5052572;28;20052;-78
2022/07/24 07:45:53;;;;;;;1.50;0.88;;;;;;;;;;5049831;28;20028;-80
2022/07/24 07:48:18;;;;;;;1.67;1.35;;;;;;;;;;5053270;28;20168;-79
2022/07/24 07:50:44;;;;;;;0.70;0.70;;;;;;;;;;5052415;28;20078;-79
2022/07/24 07:53:09;;;;;;;1.23;1.13;;;;;;;;;;5052635;28;20358;-80
2022/07/24 07:55:37;;;;;;;1.25;1.15;;;;;;;;;;5051973;28;20048;-80
2022/07/24 07:58:03;;;;;;;1.77;0.90;;;;;;;;;;5050617;28;20025;-78
2022/07/24 08:00:32;;;;;;;0.70;0.68;;;;;;;;;;5053017;28;20028;-80
2022/07/24 08:02:57;;;;;;;2.72;1.63;;;;;;;;;;5051304;28;20037;-78
2022/07/24 08:05:22;;;;;;;1.00;0.75;;;;;;;;;;5049688;28;20123;-78
2022/07/24 08:07:48;;;;;;;0.77;0.70;;;;;;;;;;5051518;28;20029;-81
2022/07/24 08:10:16;;;;;;;1.02;0.90;;;;;;;;;;5052025;28;20461;-79
2022/07/24 08:12:41;;;;;;;0.95;0.82;;;;;;;;;;5050572;28;20397;-80
2022/07/24 08:15:08;;;;;;;1.33;1.23;;;;;;;;;;5054101;28;20024;-79
2022/07/24 08:17:33;;;;;;;1.20;1.10;;;;;;;;;;5052971;28;20082;-82
2022/07/24 08:19:58;;;;;;;1.75;1.08;;;;;;;;;;5047823;28;20025;-79
2022/07/24 08:22:24;;;;;;;2.08;1.00;;;;;;;;;;5057920;28;20086;-82
2022/07/24 08:24:52;;;;;;;1.52;1.10;;;;;;;;;;5051146;28;20021;-80
2022/07/24 08:27:17;;;;;;;0.60;0.60;;;;;;;;;;5053731;28;20029;-82
2022/07/24 08:29:42;;;;;;;1.52;1.27;;;;;;;;;;5055565;28;20021;-79
2022/07/24 08:32:08;;;;;;;1.15;1.05;;;;;;;;;;5048636;28;20354;-79
2022/07/24 08:34:33;;;;;;;4.03;1.13;;;;;;;;;;5053331;28;20090;-80
2022/07/24 08:36:59;;;;;;;2.67;1.27;;;;;;;;;;5050997;28;20030;-82
2022/07/24 08:39:24;;;;;;;1.98;1.30;;;;;;;;;;5038378;28;20017;-80
2022/07/24 08:41:50;;;;;;;1.80;1.20;;;;;;;;;;5047117;28;20044;-80
2022/07/24 08:44:15;;;;;;;1.13;1.02;;;;;;;;;;5052529;28;20025;-79
2022/07/24 08:46:41;;;;;;;1.88;1.75;;;;;;;;;;5054975;28;20120;-79
2022/07/24 08:49:14;;;;;;;1.30;1.20;;;;;;;;;;5051838;28;20032;-78
2022/07/24 08:51:41;;;;;;;2.35;1.30;;;;;;;;;;5036767;28;20021;-78
2022/07/24 08:55:04;;;;;;;1.58;1.25;;;;;;;;;;5056305;28;20029;-80
2022/07/24 08:57:29;;;;;;;1.67;1.13;;;;;;;;;;5046411;28;20454;-78
2022/07/24 08:59:58;;;;;;;2.10;1.70;;;;;;;;;;5049608;28;20047;-79
2022/07/24 09:02:23;;;;;;;1.10;1.00;;;;;;;;;;5054856;28;20466;-78
2022/07/24 09:04:49;;;;;;;1.58;0.90;;;;;;;;;;5055477;28;20075;-78
2022/07/24 09:07:24;;;;;;;2.05;1.20;;;;;;;;;;5054936;28;20032;-82
2022/07/24 09:09:59;;;;;;;1.08;1.02;;;;;;;;;;5054614;28;20021;-78
2022/07/24 09:12:24;;;;;;;1.42;1.33;;;;;;;;;;5054439;28;20029;-79
2022/07/24 09:14:54;;;;;;;1.98;1.40;;;;;;;;;;5057512;28;20098;-77
2022/07/24 09:17:23;;;;;;;2.00;1.55;;;;;;;;;;5049906;28;20097;-78
2022/07/24 09:19:51;;;;;;;1.38;1.27;;;;;;;;;;5052732;28;20039;-81
2022/07/24 09:22:37;;;;;;;1.73;1.40;;;;;;;;;;5052918;28;20399;-81
2022/07/24 09:25:02;;;;;;;1.48;1.08;;;;;;;;;;5052453;28;20021;-80
2022/07/24 09:27:33;;;;;;;1.90;1.30;;;;;;;;;;5052490;28;20350;-80
2022/07/24 09:29:58;;;;;;;1.83;1.30;;;;;;;;;;5053228;28;20072;-80
2022/07/24 09:32:24;;;;;;;2.60;1.80;;;;;;;;;;5055207;28;20381;-78
2022/07/24 09:34:56;;;;;;;1.88;1.63;;;;;;;;;;5052796;28;20033;-80
2022/07/24 09:37:22;;;;;;;1.38;0.93;;;;;;;;;;5047153;28;20028;-81
2022/07/24 09:39:47;;;;;;;1.65;1.27;;;;;;;;;;5050551;28;20013;-78
2022/07/24 09:42:14;;;;;;;1.55;1.45;;;;;;;;;;5051907;28;20032;-79
2022/07/24 09:44:39;;;;;;;1.73;1.10;;;;;;;;;;5053281;28;20029;-80
2022/07/24 09:47:07;;;;;;;1.45;1.15;;;;;;;;;;5049674;28;20044;-81
2022/07/24 09:49:34;;;;;;;1.50;1.20;;;;;;;;;;5044784;28;20033;-82
2022/07/24 09:52:19;;;;;;;1.20;1.10;;;;;;;;;;5054170;28;20036;-82
2022/07/24 09:54:47;;;;;;;1.42;1.10;;;;;;;;;;5048026;28;20120;-84
2022/07/24 09:57:23;;;;;;;1.30;1.20;;;;;;;;;;5052460;28;20033;-82
2022/07/24 09:59:57;;;;;;;1.98;1.50;;;;;;;;;;5048303;28;20394;-80
2022/07/24 10:02:28;;;;;;;2.00;1.35;;;;;;;;;;5060383;28;20510;-83
2022/07/24 10:04:54;;;;;;;1.63;1.33;;;;;;;;;;5050820;28;20035;-77
2022/07/24 10:07:22;;;;;;;1.42;1.25;;;;;;;;;;5046688;28;20095;-79
2022/07/24 10:09:53;;;;;;;0.95;0.95;;;;;;;;;;5045729;28;20021;-78
2022/07/24 10:12:22;;;;;;;4.05;1.67;;;;;;;;;;5053074;28;20440;-79
2022/07/24 10:14:49;;;;;;;3.67;1.80;;;;;;;;;;5050719;28;20455;-79
2022/07/24 10:17:17;;;;;;;1.25;1.15;;;;;;;;;;5048874;28;20143;-78
2022/07/24 10:19:52;;;;;;;4.88;1.92;;;;;;;;;;5035493;28;20078;-80
2022/07/24 10:22:21;;;;;;;1.75;1.52;;;;;;;;;;5050086;28;20021;-77
2022/07/24 10:24:57;;;;;;;1.73;1.27;;;;;;;;;;5050856;28;20086;-79
2022/07/24 10:27:32;;;;;;;1.88;1.27;;;;;;;;;;5051685;28;20512;-81
2022/07/24 10:30:05;;;;;;;3.08;1.45;;;;;;;;;;5028279;28;20025;-83
2022/07/24 10:32:32;;;;;;;3.40;1.77;;;;;;;;;;5049493;28;20109;-85
2022/07/24 10:35:04;;;;;;;3.03;1.77;;;;;;;;;;5045980;28;20029;-80
2022/07/24 10:37:48;;;;;;;1.52;1.33;;;;;;;;;;5046008;28;20040;-83
2022/07/24 10:40:44;;;;;;;1.38;1.27;;;;;;;;;;5051163;28;20048;-81
2022/07/24 10:43:13;;;;;;;1.70;1.15;;;;;;;;;;5049262;28;20052;-81
2022/07/24 10:45:38;;;;;;;1.35;1.25;;;;;;;;;;5051496;28;20066;-83
2022/07/24 10:48:27;;;;;;;1.40;1.30;;;;;;;;;;5043237;28;20025;-81
2022/07/24 10:53:28;;;;;;;1.90;1.58;;;;;;;;;;5052545;28;20032;-80
2022/07/24 10:56:17;;;;;;;1.20;1.10;;;;;;;;;;5047975;28;20418;-78
2022/07/24 10:59:11;;;;;;;3.13;1.50;;;;;;;;;;5052581;28;20124;-82
2022/07/24 11:01:51;;;;;;;3.13;1.58;;;;;;;;;;5052034;28;20090;-83
2022/07/24 11:04:22;;;;;;;1.80;1.48;;;;;;;;;;5047908;28;20155;-79
2022/07/24 11:06:48;;;;;;;1.90;1.48;;;;;;;;;;5049319;28;20025;-81
2022/07/24 11:09:17;;;;;;;2.65;1.67;;;;;;;;;;5048317;28;20036;-81
2022/07/24 11:12:03;;;;;;;2.25;1.33;;;;;;;;;;5047497;28;20045;-81
2022/07/24 11:14:38;;;;;;;4.82;2.55;;;;;;;;;;5055144;28;20044;-84
2022/07/24 11:17:41;;;;;;;1.60;1.25;;;;;;;;;;5045273;28;20025;-83
2022/07/24 11:20:12;;;;;;;2.00;1.52;;;;;;;;;;5050803;28;20056;-80
2022/07/24 11:22:49;;;;;;;1.55;1.30;;;;;;;;;;5050164;28;20021;-82
2022/07/24 11:25:23;;;;;;;1.42;1.17;;;;;;;;;;5053044;28;20843;-83
2022/07/24 11:28:12;;;;;;;2.15;1.45;;;;;;;;;;5054335;28;20021;-86
2022/07/24 11:30:43;;;;;;;1.85;1.50;;;;;;;;;;5043676;28;20021;-81
2022/07/24 11:33:10;;;;;;;1.77;1.40;;;;;;;;;;5049318;28;20048;-82
2022/07/24 11:35:37;;;;;;;2.75;1.80;;;;;;;;;;5049811;28;20029;-81
2022/07/24 11:38:06;;;;;;;1.40;0.95;;;;;;;;;;5034468;28;20036;-85
2022/07/24 11:40:35;;;;;;;1.55;1.27;;;;;;;;;;5031639;28;20045;-79
2022/07/24 11:43:04;;;;;;;1.35;1.25;;;;;;;;;;5067123;28;20032;-80
2022/07/24 11:45:29;;;;;;;1.08;0.90;;;;;;;;;;5047578;28;20021;-76
2022/07/24 11:47:55;;;;;;;1.23;0.90;;;;;;;;;;5050029;28;20544;-81
2022/07/24 11:50:23;;;;;;;1.83;1.55;;;;;;;;;;5052211;28;20041;-81
2022/07/24 11:52:49;;;;;;;2.47;1.58;;;;;;;;;;5055373;28;20343;-81
2022/07/24 11:55:17;;;;;;;1.05;0.90;;;;;;;;;;5054651;28;20489;-79
2022/07/24 11:57:48;;;;;;;1.02;0.93;;;;;;;;;;5051579;28;20454;-81
2022/07/24 12:00:17;;;;;;;2.15;1.20;;;;;;;;;;5051523;28;20484;-83
2022/07/24 12:02:51;;;;;;;1.33;1.23;;;;;;;;;;5045777;28;20028;-79
2022/07/24 12:05:37;;;;;;;1.95;1.40;;;;;;;;;;5057845;28;20025;-82
2022/07/24 12:08:05;;;;;;;2.47;1.40;;;;;;;;;;5053663;28;20035;-80
2022/07/24 12:10:32;;;;;;;3.45;1.90;;;;;;;;;;5045096;28;20478;-79
2022/07/24 12:13:00;;;;;;;1.90;1.30;;;;;;;;;;5054451;28;20087;-82
2022/07/24 12:15:28;;;;;;;1.73;1.10;;;;;;;;;;5053397;28;20027;-83
2022/07/24 12:17:55;;;;;;;2.30;1.45;;;;;;;;;;5037962;28;20259;-81
2022/07/24 12:20:26;;;;;;;1.15;1.02;;;;;;;;;;5054029;28;20017;-79
2022/07/24 12:22:52;;;;;;;1.25;1.02;;;;;;;;;;5056524;28;20025;-81
2022/07/24 12:25:23;;;;;;;1.42;1.08;;;;;;;;;;5037382;28;20123;-79
2022/07/24 12:27:49;;;;;;;2.42;1.30;;;;;;;;;;5048409;28;20029;-80
2022/07/24 12:30:26;;;;;;;1.63;1.52;;;;;;;;;;5053660;28;20043;-80
2022/07/24 12:33:07;;;;;;;1.48;1.38;;;;;;;;;;5050977;28;20032;-80
2022/07/24 12:35:43;;;;;;;3.10;1.60;;;;;;;;;;5053282;28;20017;-79
2022/07/24 12:38:08;;;;;;;2.22;1.45;;;;;;;;;;5052073;28;20036;-80
2022/07/24 12:40:36;;;;;;;1.42;1.33;;;;;;;;;;5048539;28;20029;-79
2022/07/24 12:43:13;;;;;;;1.65;1.55;;;;;;;;;;5052983;28;20048;-79
2022/07/24 12:45:45;;;;;;;1.58;1.20;;;;;;;;;;5067795;28;20104;-78
2022/07/24 12:48:16;;;;;;;1.40;1.30;;;;;;;;;;5052551;28;20029;-80
2022/07/24 12:51:05;;;;;;;1.40;1.20;;;;;;;;;;5054548;28;20036;-80
2022/07/24 12:53:32;;;;;;;1.75;1.15;;;;;;;;;;5038806;28;20040;-82
2022/07/24 12:56:08;;;;;;;1.52;1.23;;;;;;;;;;5053655;28;20445;-81
2022/07/24 12:59:11;;;;;;;2.33;1.63;;;;;;;;;;5054365;28;20081;-81
2022/07/24 13:01:48;;;;;;;1.70;1.50;;;;;;;;;;5010488;28;20438;-80
2022/07/24 13:04:16;;;;;;;1.75;1.38;;;;;;;;;;5034366;28;20359;-85
2022/07/24 13:06:45;;;;;;;1.42;1.33;;;;;;;;;;5052489;28;20704;-79
2022/07/24 13:09:12;;;;;;;1.92;1.08;;;;;;;;;;5069600;28;20025;-80
2022/07/24 13:11:42;;;;;;;1.83;1.45;;;;;;;;;;5054396;28;20036;-78
2022/07/24 13:14:08;;;;;;;1.33;1.20;;;;;;;;;;5055620;28;20103;-81
2022/07/24 13:16:37;;;;;;;1.80;1.00;;;;;;;;;;5056011;28;20484;-80
2022/07/24 13:19:06;;;;;;;1.52;1.15;;;;;;;;;;5054120;28;20107;-79
2022/07/24 13:21:32;;;;;;;1.80;1.50;;;;;;;;;;5054371;28;20362;-79
2022/07/24 13:23:59;;;;;;;3.33;1.88;;;;;;;;;;5054604;28;20029;-79
2022/07/24 13:26:25;;;;;;;1.42;1.15;;;;;;;;;;5054736;28;20020;-79
2022/07/24 13:28:51;;;;;;;1.38;1.02;;;;;;;;;;5038038;28;20393;-80
2022/07/24 13:31:19;;;;;;;2.58;1.30;;;;;;;;;;5037591;28;20410;-78
2022/07/24 13:33:48;;;;;;;1.75;1.00;;;;;;;;;;5055383;28;20439;-79
2022/07/24 13:36:14;;;;;;;1.02;0.98;;;;;;;;;;5054869;28;20505;-79
2022/07/24 13:38:39;;;;;;;2.22;1.92;;;;;;;;;;5050816;28;20086;-79
2022/07/24 13:41:07;;;;;;;2.60;1.20;;;;;;;;;;5052381;28;20048;-80
2022/07/24 13:43:33;;;;;;;1.42;1.33;;;;;;;;;;5050403;28;20033;-79
2022/07/24 13:45:58;;;;;;;1.50;1.23;;;;;;;;;;5058013;28;20457;-79
2022/07/24 13:48:26;;;;;;;1.90;1.38;;;;;;;;;;5032986;28;20044;-79
2022/07/24 13:50:51;;;;;;;2.25;1.67;;;;;;;;;;5054109;28;20044;-78
2022/07/24 13:53:17;;;;;;;1.70;1.40;;;;;;;;;;5037846;28;20021;-79
2022/07/24 13:55:42;;;;;;;1.95;1.58;;;;;;;;;;5043077;28;20024;-79
2022/07/24 13:58:07;;;;;;;1.25;1.05;;;;;;;;;;5055476;28;20025;-79
2022/07/24 14:00:33;;;;;;;1.70;1.40;;;;;;;;;;5054555;28;20025;-78
2022/07/24 14:02:58;;;;;;;1.35;1.15;;;;;;;;;;5054827;28;20370;-78
2022/07/24 14:05:27;;;;;;;1.63;1.50;;;;;;;;;;5052485;28;20023;-79
2022/07/24 14:07:53;;;;;;;2.25;1.63;;;;;;;;;;5050459;28;20055;-79
2022/07/24 14:10:19;;;;;;;1.00;0.88;;;;;;;;;;5054767;28;20021;-79
2022/07/24 14:12:47;;;;;;;1.20;1.00;;;;;;;;;;5054498;28;20488;-78
2022/07/24 14:15:15;;;;;;;1.45;1.10;;;;;;;;;;5059859;28;20024;-77
2022/07/24 14:17:43;;;;;;;1.30;1.00;;;;;;;;;;5054148;28;20375;-78
2022/07/24 14:20:10;;;;;;;1.65;1.42;;;;;;;;;;5054256;28;20111;-77
2022/07/24 14:22:37;;;;;;;1.13;0.90;;;;;;;;;;5048812;28;20025;-78
2022/07/24 14:25:04;;;;;;;1.90;1.35;;;;;;;;;;5051084;28;20025;-77
2022/07/24 14:27:29;;;;;;;2.28;1.30;;;;;;;;;;5053382;28;20024;-77
2022/07/24 14:29:57;;;;;;;1.50;1.40;;;;;;;;;;5053634;28;20366;-77
2022/07/24 14:32:23;;;;;;;1.50;1.30;;;;;;;;;;5047888;28;20514;-77
2022/07/24 14:34:48;;;;;;;1.50;1.05;;;;;;;;;;5050413;28;20104;-77
2022/07/24 14:37:14;;;;;;;2.35;1.58;;;;;;;;;;5050101;28;20166;-77
2022/07/24 14:39:39;;;;;;;1.38;1.27;;;;;;;;;;5052682;28;20588;-77
2022/07/24 14:42:07;;;;;;;1.42;1.23;;;;;;;;;;5052284;28;20418;-76
2022/07/24 14:44:32;;;;;;;1.00;0.80;;;;;;;;;;5055217;28;20135;-78
2022/07/24 14:47:00;;;;;;;1.67;1.33;;;;;;;;;;5053331;28;20025;-78
2022/07/24 14:49:26;;;;;;;5.03;1.15;;;;;;;;;;5054085;28;20033;-78
2022/07/24 14:51:51;;;;;;;1.50;1.38;;;;;;;;;;5053348;28;20036;-78